createdAt,value
2022-09-05T00:04:25.252Z,7.85
2022-09-05T00:09:40.240Z,6.03
2022-09-05T00:15:16.273Z,7.43
2022-09-05T00:24:18.945Z,9.18
2022-09-05T00:26:12.474Z,8.27
2022-09-05T00:31:55.307Z,6.25
2022-09-05T00:36:56.482Z,8.10
2022-09-05T00:42:09.713Z,7.72
2022-09-05T00:47:21.485Z,8.23
2022-09-05T00:53:06.633Z,9.10
2022-09-05T00:58:19.259Z,10.07
2022-09-05T01:03:27.949Z,11.95
2022-09-05T01:08:51.738Z,10.30
2022-09-05T01:14:20.065Z,9.38
2022-09-05T01:19:51.776Z,8.45
2022-09-05T01:25:10.941Z,10.80
2022-09-05T01:30:23.465Z,11.88
2022-09-05T01:36:00.554Z,8.27
2022-09-05T01:41:18.908Z,9.18
2022-09-05T01:46:30.006Z,6.00
2022-09-05T01:52:01.591Z,8.45
2022-09-05T01:57:21.868Z,11.52
2022-09-05T02:02:55.696Z,8.55
2022-09-05T02:08:08.891Z,12.57
2022-09-05T02:13:30.070Z,11.48
2022-09-05T02:19:05.313Z,9.65
2022-09-05T02:24:36.095Z,8.93
2022-09-05T02:29:50.791Z,10.75
2022-09-05T02:34:59.651Z,10.38
2022-09-05T02:45:03.598Z,9.32
2022-09-05T02:46:05.107Z,9.35
2022-09-05T02:57:23.060Z,6.63
2022-09-05T02:58:05.926Z,9.63
2022-09-05T03:03:18.106Z,9.63
2022-09-05T03:08:34.033Z,7.90
2022-09-05T03:13:57.852Z,9.50
2022-09-05T03:19:06.518Z,9.82
2022-09-05T03:24:55.929Z,9.30
2022-09-05T03:30:36.838Z,8.95
2022-09-05T03:36:10.851Z,8.75
2022-09-05T03:41:40.312Z,9.07
2022-09-05T03:47:13.084Z,8.68
2022-09-05T03:57:10.353Z,6.25
2022-09-05T03:58:55.838Z,9.35
2022-09-05T04:08:15.982Z,8.75
2022-09-05T04:09:59.211Z,9.15
2022-09-05T04:15:32.302Z,8.60
2022-09-05T04:20:56.785Z,6.88
2022-09-05T04:26:11.368Z,8.70
2022-09-05T04:32:05.495Z,8.85
2022-09-05T04:37:48.929Z,5.22
2022-09-05T04:42:55.196Z,7.53
2022-09-05T04:48:06.220Z,6.63
2022-09-05T04:53:34.646Z,9.35
2022-09-05T05:00:22.819Z,8.98
2022-09-05T05:06:14.486Z,9.45
2022-09-05T05:10:01.896Z,9.43
2022-09-05T05:18:09.260Z,8.18
2022-09-05T05:21:10.826Z,9.98
2022-09-05T05:26:23.860Z,6.05
2022-09-05T05:31:32.747Z,9.27
2022-09-05T05:36:48.784Z,5.45
2022-09-05T05:42:17.460Z,6.10
2022-09-05T05:47:43.701Z,9.05
2022-09-05T05:53:33.638Z,8.52
2022-09-05T05:59:25.033Z,9.77
2022-09-05T06:04:44.795Z,9.13
2022-09-05T06:14:50.394Z,10.38
2022-09-05T06:15:41.958Z,10.20
2022-09-05T06:22:06.614Z,9.02
2022-09-05T06:26:58.541Z,8.80
2022-09-05T06:33:05.417Z,9.02
2022-09-05T06:38:28.689Z,8.85
2022-09-05T06:43:46.370Z,5.35
2022-09-05T06:49:30.341Z,7.88
2022-09-05T06:55:09.719Z,7.85
2022-09-05T07:00:25.293Z,6.95
2022-09-05T07:11:16.128Z,6.32
2022-09-05T07:16:40.328Z,5.65
2022-09-05T07:22:47.344Z,6.85
2022-09-05T07:28:28.209Z,6.88
2022-09-05T07:33:29.658Z,6.85
2022-09-05T07:38:52.104Z,5.35
2022-09-05T07:44:29.161Z,5.38
2022-09-05T07:49:39.900Z,6.90
2022-09-05T07:57:09.778Z,6.45
2022-09-05T08:00:38.097Z,6.25
2022-09-05T08:05:50.219Z,5.85
2022-09-05T08:11:24.434Z,5.90
2022-09-05T08:16:27.946Z,6.15
2022-09-05T08:21:43.555Z,6.00
2022-09-05T08:32:10.324Z,6.30
2022-09-05T08:37:22.708Z,7.22
2022-09-05T08:42:49.378Z,6.55
2022-09-05T08:48:16.944Z,6.55
2022-09-05T08:53:46.207Z,6.53
2022-09-05T08:59:27.871Z,7.50
2022-09-05T09:05:14.314Z,7.20
2022-09-05T09:10:47.908Z,7.00
2022-09-05T09:16:19.056Z,5.88
2022-09-05T09:21:40.015Z,6.72
2022-09-05T09:26:58.126Z,5.82
2022-09-05T09:32:30.896Z,7.00
2022-09-05T09:38:10.089Z,6.93
2022-09-05T09:43:30.218Z,6.90
2022-09-05T09:48:53.965Z,7.47
2022-09-05T09:54:21.360Z,7.30
2022-09-05T09:59:54.044Z,6.28
2022-09-05T10:10:38.413Z,6.75
2022-09-05T10:16:50.517Z,7.75
2022-09-05T10:22:37.776Z,7.30
2022-09-05T10:35:14.386Z,7.63
2022-09-05T10:38:43.003Z,7.10
2022-09-05T10:44:03.816Z,7.95
2022-09-05T10:49:12.806Z,7.00
2022-09-05T10:55:14.081Z,7.63
2022-09-05T11:02:24.866Z,9.23
2022-09-05T11:07:19.335Z,9.70
2022-09-05T11:12:57.650Z,7.93
2022-09-05T11:18:10.377Z,9.55
2022-09-05T11:23:56.865Z,12.40
2022-09-05T11:29:14.884Z,10.98
2022-09-05T11:40:08.639Z,7.82
2022-09-05T11:40:31.209Z,12.43
2022-09-05T11:45:52.080Z,9.55
2022-09-05T11:51:33.474Z,14.07
2022-09-05T11:56:54.422Z,17.13
2022-09-05T12:02:51.866Z,14.02
2022-09-05T12:08:28.827Z,10.07
2022-09-05T12:13:37.413Z,9.90
2022-09-05T12:19:07.534Z,12.65
2022-09-05T12:25:27.108Z,16.73
2022-09-05T12:30:33.627Z,14.50
2022-09-05T12:40:54.550Z,16.92
2022-09-05T12:42:11.401Z,15.77
2022-09-05T12:47:19.404Z,13.50
2022-09-05T12:52:28.522Z,15.88
2022-09-05T13:01:19.042Z,15.63
2022-09-05T13:03:40.642Z,17.02
2022-09-05T13:08:59.091Z,16.98
2022-09-05T13:14:57.187Z,17.00
2022-09-05T13:19:52.663Z,17.00
2022-09-05T13:25:13.381Z,17.48
2022-09-05T13:31:28.604Z,17.98
2022-09-05T13:38:16.015Z,18.23
2022-09-05T13:41:39.091Z,15.93
2022-09-05T13:47:29.076Z,17.45
2022-09-05T13:53:10.322Z,19.17
2022-09-05T13:58:33.599Z,18.48
2022-09-05T14:10:04.628Z,20.13
2022-09-05T14:15:34.159Z,20.63
2022-09-05T14:21:10.545Z,22.75
2022-09-05T14:26:23.649Z,28.95
2022-09-05T14:37:41.990Z,30.65
2022-09-05T14:38:04.289Z,31.55
2022-09-05T14:43:52.527Z,31.42
2022-09-05T14:49:18.629Z,29.52
2022-09-05T15:02:50.861Z,28.55
2022-09-05T15:05:53.623Z,27.33
2022-09-05T15:12:20.230Z,23.30
2022-09-05T15:16:28.532Z,22.27
2022-09-05T15:21:39.664Z,21.30
2022-09-05T15:27:17.520Z,21.67
2022-09-05T15:32:29.484Z,21.10
2022-09-05T15:37:39.253Z,20.10
2022-09-05T15:42:53.365Z,20.50
2022-09-05T15:48:19.143Z,19.08
2022-09-05T15:53:35.926Z,17.67
2022-09-05T15:58:55.222Z,19.58
2022-09-05T16:08:31.388Z,17.65
2022-09-05T16:10:59.013Z,17.67
2022-09-05T16:19:00.197Z,13.23
2022-09-05T16:23:23.941Z,16.38
2022-09-05T16:26:14.159Z,15.80
2022-09-05T16:31:51.461Z,16.23
2022-09-05T16:37:08.022Z,15.35
2022-09-05T16:42:47.195Z,14.60
2022-09-05T16:48:07.065Z,15.55
2022-09-05T16:53:28.297Z,13.90
2022-09-05T16:59:03.149Z,15.30
2022-09-05T17:04:21.654Z,13.23
2022-09-05T17:09:40.504Z,14.13
2022-09-05T17:14:54.776Z,14.27
2022-09-05T17:20:07.303Z,13.95
2022-09-05T17:29:24.239Z,13.52
2022-09-05T17:36:53.560Z,13.73
2022-09-05T17:42:10.316Z,12.68
2022-09-05T17:47:24.318Z,11.82
2022-09-05T17:53:25.819Z,13.15
2022-09-05T17:58:41.225Z,12.32
2022-09-05T18:04:15.837Z,13.82
2022-09-05T18:10:01.504Z,12.98
2022-09-05T18:15:27.110Z,13.13
2022-09-05T18:20:45.179Z,14.30
2022-09-05T18:25:56.920Z,13.75
2022-09-05T18:31:41.618Z,14.60
2022-09-05T18:36:52.879Z,17.67
2022-09-05T18:42:26.553Z,14.98
2022-09-05T18:47:59.132Z,16.83
2022-09-05T18:53:12.975Z,20.17
2022-09-05T18:58:37.072Z,19.70
2022-09-05T19:03:45.038Z,21.50
2022-09-05T19:09:26.861Z,22.25
2022-09-05T19:14:56.024Z,22.38
2022-09-05T19:20:33.108Z,21.98
2022-09-05T19:25:41.298Z,22.52
2022-09-05T19:36:58.906Z,21.65
2022-09-05T19:37:23.826Z,22.88
2022-09-05T19:47:30.004Z,23.45
2022-09-05T19:53:10.297Z,25.45
2022-09-05T19:58:24.047Z,20.50
2022-09-05T20:03:38.197Z,21.23
2022-09-05T20:08:48.463Z,22.77
2022-09-05T20:13:55.116Z,22.67
2022-09-05T20:19:01.634Z,21.52
2022-09-05T20:24:08.265Z,21.20
2022-09-05T20:29:16.472Z,19.58
2022-09-05T20:35:17.495Z,19.35
2022-09-05T20:43:18.556Z,18.95
2022-09-05T20:45:46.058Z,21.03
2022-09-05T20:54:21.533Z,18.73
2022-09-05T20:56:37.603Z,15.02
2022-09-05T21:01:44.140Z,17.63
2022-09-05T21:06:50.901Z,18.30
2022-09-05T21:12:00.116Z,18.35
2022-09-05T21:17:15.504Z,18.90
2022-09-05T21:22:43.676Z,17.02
2022-09-05T21:28:23.458Z,20.63
2022-09-05T21:33:45.118Z,20.10
2022-09-05T21:38:51.507Z,18.60
2022-09-05T21:47:34.035Z,17.13
2022-09-05T21:49:24.554Z,14.10
2022-09-05T21:59:14.485Z,14.65
2022-09-05T22:00:04.008Z,14.25
2022-09-05T22:05:26.933Z,15.18
2022-09-05T22:10:43.457Z,9.77
2022-09-05T22:16:06.308Z,17.38
2022-09-05T22:21:31.758Z,13.40
2022-09-05T22:27:11.355Z,11.77
2022-09-05T22:32:14.717Z,8.65
2022-09-05T22:37:20.613Z,9.68
2022-09-05T22:42:26.303Z,10.48
2022-09-05T22:47:32.047Z,11.27
2022-09-05T22:52:37.739Z,7.40
2022-09-05T22:57:43.759Z,13.05
2022-09-05T23:02:52.386Z,6.20
2022-09-05T23:08:02.415Z,16.23
2022-09-05T23:13:10.496Z,11.80
2022-09-05T23:18:16.010Z,9.50
2022-09-05T23:23:21.246Z,10.77
2022-09-05T23:28:27.018Z,10.70
2022-09-05T23:33:33.527Z,13.40
2022-09-05T23:38:38.960Z,14.25
2022-09-05T23:43:44.464Z,9.35
2022-09-05T23:48:50.000Z,14.32
2022-09-05T23:53:55.108Z,14.90
2022-09-05T23:59:00.810Z,14.55
